Terminal Aerodrome Forecast
Issued by NWS Wakefield, VA

Home | Current Version | Previous Version | Text Only | Print | Product List | Glossary On
Versions: 1 2 3 4 5 6 7 8 9 10 11 12 13 14
402
FTUS41 KAKQ 272332
TAFRIC
TAF
KRIC 272332Z 2800/2824 06006KT P6SM SKC
     FM280900 VRB03KT 4SM BR BKN008
     FM281200 03004KT P6SM BKN015
     FM281400 06007KT P6SM SCT040=

USA.gov is the U.S. government's official web portal to all federal, state and local government web resources and services.